Lake Quivira, Kansas
Current Conditions -  °F | °C
As of 12:53 PM on Friday 31 Oct 2014 (Local Time) from KOJC Reporting Station
Clear Clear  
Wind Chill: 35°   Ceiling: Unl
Heat Index: 42°   Visibility: 10mi
Dew Point: 17°   Wind: 15mph
Humidity: 37%   Direction: 360°N
Pressure: 30.47"   Gusts: 22mph
Location:  39.0067°N, 94.7872°W
Report Text: KOJC 311753Z 36013G19KT 10SM CLR 06/M08 A3047 RMK AO2 SLP321 T00561083 10056 20017 50001
Loading
Personal Weather Stations






























Interactive Weather Map New forecast layout! Learn more

10-Day Weather Forecast

Advertisements
Track Severe Weather on mobile